Stations météo

réclame
Mon MeteoGroup
Bealach, Grande-Bretagne (3039): Température de l'air & dewpoint: 16.03.2019 06:00:00 - 22.03.2019 06:00:00 (GMT)Bealach, Grande-Bretagne (3039): Vitesse du vent & gusts: 16.03.2019 06:00:00 - 22.03.2019 06:00:00 (GMT)Bealach, Grande-Bretagne (3039): Direction du vent: 16.03.2019 06:00:00 - 22.03.2019 06:00:00 (GMT)
Date & Time tt [°C] td [°C] ff [km/h] ff [knt] fx [km/h] fx [knt] dd
22.03.2019 06:00:00 4,7 4,7 70 38 130 70 S
22.03.2019 05:00:00 4,6 4,6 83 45 131 71 S
22.03.2019 04:00:00 4,6 4,6 68 37 124 67 S
22.03.2019 03:00:00 4,7 4,7 54 29 111 60 S
22.03.2019 02:00:00 4,6 4,6 42 23 111 60 SSE
22.03.2019 01:00:00 4,2 4,2 59 32 113 61 SSE
22.03.2019 00:00:00 5,0 5,0 41 22 94 51 S
21.03.2019 23:00:00 5,4 5,4 44 24 94 51 SSE
21.03.2019 22:00:00 6,0 6,0 41 22 85 46 SSE
21.03.2019 21:00:00 5,8 5,8 35 19 68 37 SSE
21.03.2019 20:00:00 5,3 5,3 52 28 67 36 S
21.03.2019 19:00:00 4,7 4,7 24 13 55 30 S
21.03.2019 18:00:00 4,3 4,3 35 19 61 33 SSE
21.03.2019 17:00:00 4,0 4,0 41 22 65 35 SSE
21.03.2019 16:00:00 3,6 3,6 26 14 - - S
21.03.2019 15:00:00 3,6 3,6 35 19 - - SSW
21.03.2019 14:00:00 3,7 3,7 35 19 48 26 SSW
21.03.2019 13:00:00 3,8 3,8 31 17 - - SSW
21.03.2019 12:00:00 3,5 3,5 22 12 - - SSW
21.03.2019 11:00:00 3,3 3,3 16 9 - - SW
21.03.2019 10:00:00 3,4 3,4 21 11 - - WSW
21.03.2019 09:00:00 3,8 3,8 28 15 - - W
21.03.2019 08:00:00 4,0 4,0 29 16 52 28 W
21.03.2019 07:00:00 4,3 4,3 41 22 48 26 W
21.03.2019 06:00:00 4,4 4,4 37 20 55 30 W
21.03.2019 05:00:00 4,6 4,6 54 29 74 40 W
21.03.2019 04:00:00 5,9 5,9 52 28 67 36 SW
21.03.2019 03:00:00 5,6 5,6 54 29 70 38 SW
21.03.2019 02:00:00 5,7 5,7 55 30 72 39 SW
21.03.2019 01:00:00 5,7 5,7 61 33 76 41 SW
21.03.2019 00:00:00 5,7 5,7 59 32 80 43 SW
20.03.2019 23:00:00 5,7 5,7 59 32 74 40 SW
20.03.2019 22:00:00 5,6 5,6 59 32 91 49 SW
20.03.2019 21:00:00 5,5 5,5 74 40 102 55 SSW
20.03.2019 20:00:00 5,3 5,3 83 45 102 55 SSW
20.03.2019 19:00:00 5,4 5,4 78 42 106 57 SSW
20.03.2019 18:00:00 5,6 5,6 83 45 102 55 SSW
20.03.2019 17:00:00 5,7 5,7 81 44 102 55 SSW
20.03.2019 16:00:00 5,6 5,6 78 42 104 56 SSW
20.03.2019 15:00:00 5,6 5,6 78 42 102 55 SSW
20.03.2019 14:00:00 5,3 5,3 74 40 93 50 SSW
20.03.2019 13:00:00 4,9 4,9 65 35 85 46 SSW
20.03.2019 12:00:00 4,3 4,3 59 32 83 45 SSW
20.03.2019 11:00:00 3,9 3,9 65 35 80 43 SSW
20.03.2019 10:00:00 3,3 3,3 59 32 72 39 SSW
20.03.2019 09:00:00 2,8 2,8 37 20 55 30 SW
20.03.2019 08:00:00 2,9 2,9 41 22 50 27 SW
20.03.2019 07:00:00 2,1 2,1 34 18 65 35 WSW
20.03.2019 06:00:00 2,5 2,5 54 29 63 34 W
20.03.2019 05:00:00 2,1 2,1 48 26 57 31 WSW
20.03.2019 04:00:00 2,6 2,6 44 24 52 28 WSW
20.03.2019 03:00:00 2,3 2,3 41 22 57 31 W
20.03.2019 02:00:00 1,9 1,9 48 26 65 35 W
20.03.2019 01:00:00 3,5 3,5 44 24 68 37 WSW
20.03.2019 00:00:00 2,7 2,7 48 26 61 33 WSW
19.03.2019 23:00:00 2,4 2,4 44 24 61 33 WSW
19.03.2019 22:00:00 2,4 2,4 46 25 65 35 WSW
19.03.2019 21:00:00 2,8 2,8 54 29 70 38 WSW
19.03.2019 20:00:00 3,3 3,3 50 27 76 41 WSW
19.03.2019 19:00:00 3,8 3,8 65 35 81 44 WSW
19.03.2019 18:00:00 4,6 4,6 54 29 74 40 WSW
19.03.2019 17:00:00 4,5 4,5 67 36 78 42 WSW
19.03.2019 16:00:00 4,6 4,6 50 27 65 35 WSW
19.03.2019 15:00:00 4,5 4,5 54 29 68 37 WSW
19.03.2019 14:00:00 4,5 4,5 50 27 70 38 SW
19.03.2019 13:00:00 4,4 4,4 61 33 81 44 SSW
19.03.2019 12:00:00 3,9 3,9 70 38 81 44 SSW
19.03.2019 11:00:00 3,4 3,4 63 34 83 45 S
19.03.2019 10:00:00 3,0 3,0 63 34 80 43 SSW
19.03.2019 09:00:00 2,8 2,8 59 32 81 44 S
19.03.2019 08:00:00 2,7 2,7 63 34 81 44 S
19.03.2019 07:00:00 2,7 2,7 63 34 81 44 S
19.03.2019 06:00:00 2,5 2,5 61 33 72 39 SSW
19.03.2019 05:00:00 2,7 2,7 54 29 68 37 SSW
19.03.2019 04:00:00 3,2 3,2 28 15 57 31 SW
19.03.2019 03:00:00 3,2 3,2 52 28 59 32 SSW
19.03.2019 02:00:00 2,9 2,9 42 23 52 28 SSW
19.03.2019 01:00:00 2,6 2,6 42 23 48 26 SSW
19.03.2019 00:00:00 2,5 2,5 37 20 46 25 SSW
18.03.2019 23:00:00 2,2 2,2 26 14 - - SSW
18.03.2019 22:00:00 2,4 2,4 22 12 - - WSW
18.03.2019 21:00:00 2,5 2,5 29 16 - - WSW
18.03.2019 20:00:00 2,6 2,6 26 14 - - W
18.03.2019 19:00:00 2,6 2,6 28 15 - - W
18.03.2019 18:00:00 2,5 2,5 18 10 - - W
18.03.2019 17:00:00 2,4 2,4 22 12 - - SW
18.03.2019 16:00:00 2,0 2,0 37 20 - - SSW
18.03.2019 15:00:00 1,6 1,5 29 16 - - SSW
18.03.2019 14:00:00 1,3 0,5 21 11 - - S
18.03.2019 13:00:00 0,7 -0,4 28 15 - - S
18.03.2019 12:00:00 -0,1 -2,1 22 12 - - S
18.03.2019 11:00:00 -0,2 -1,3 24 13 - - SSE
18.03.2019 10:00:00 -0,3 -0,6 21 11 - - SSE
18.03.2019 09:00:00 -0,5 -0,5 21 11 - - S
18.03.2019 08:00:00 -0,8 -0,8 21 11 - - S
18.03.2019 07:00:00 -0,8 -0,8 18 10 - - SSW
18.03.2019 06:00:00 -0,6 -0,6 24 13 - - SSW
18.03.2019 05:00:00 -0,8 -0,8 24 13 - - SW
18.03.2019 04:00:00 -1,2 -1,2 24 13 - - SW
18.03.2019 03:00:00 -1,3 -1,3 26 14 - - SW
18.03.2019 02:00:00 -0,7 -0,7 22 12 - - WSW
18.03.2019 01:00:00 -0,9 -0,9 24 13 - - W
18.03.2019 00:00:00 -1,2 -1,2 16 9 - - W
17.03.2019 23:00:00 -1,0 -1,2 21 11 - - NW
17.03.2019 22:00:00 -1,4 -1,4 - - - - -
17.03.2019 21:00:00 -1,7 -2,1 - - - - -
17.03.2019 20:00:00 -1,9 -2,0 - - 52 28 -
17.03.2019 19:00:00 -1,8 -1,8 39 21 55 30 N
17.03.2019 18:00:00 -1,5 -1,5 35 19 54 29 N
17.03.2019 17:00:00 -1,6 -1,6 37 20 72 39 N
17.03.2019 16:00:00 -1,3 -1,4 63 34 91 49 NNW
17.03.2019 15:00:00 -1,1 -1,1 63 34 81 44 NNW
17.03.2019 14:00:00 -0,8 -0,8 48 26 94 51 N
17.03.2019 13:00:00 -0,7 -0,7 67 36 91 49 NNE
17.03.2019 12:00:00 -0,5 -0,5 61 33 87 47 N
17.03.2019 11:00:00 -0,5 -0,5 42 23 80 43 NNE
17.03.2019 10:00:00 -1,1 -1,1 39 21 89 48 N
17.03.2019 09:00:00 -0,7 -0,7 59 32 70 38 NNW
17.03.2019 08:00:00 -1,0 -1,0 50 27 61 33 NNW
17.03.2019 07:00:00 -1,4 -1,4 48 26 61 33 NW
17.03.2019 06:00:00 -2,1 -2,1 41 22 72 39 WNW
17.03.2019 05:00:00 -2,0 -2,0 44 24 65 35 WNW
17.03.2019 04:00:00 -2,2 -2,2 54 29 67 36 WNW
17.03.2019 03:00:00 -2,1 -2,1 52 28 67 36 WNW
17.03.2019 02:00:00 -2,5 -2,5 54 29 68 37 WNW
17.03.2019 01:00:00 -2,2 -2,2 46 25 59 32 WNW
17.03.2019 00:00:00 -2,2 -2,2 44 24 59 32 WNW
16.03.2019 23:00:00 -2,6 -2,6 44 24 63 34 NW
16.03.2019 22:00:00 -2,5 -2,5 39 21 65 35 NW
16.03.2019 21:00:00 -2,3 -2,3 39 21 48 26 NW
16.03.2019 20:00:00 -2,8 -2,8 41 22 59 32 NNW
16.03.2019 19:00:00 -2,5 -2,5 48 26 59 32 NNW
16.03.2019 18:00:00 -2,5 -2,5 41 22 55 30 NNW
16.03.2019 17:00:00 -2,4 -2,4 42 23 54 29 N
16.03.2019 16:00:00 -2,4 -2,4 42 23 48 26 NNW
16.03.2019 15:00:00 -2,4 -2,4 26 14 - - N
16.03.2019 14:00:00 -2,7 -2,7 16 9 - - N
16.03.2019 13:00:00 -2,8 -2,8 11 6 - - ENE
16.03.2019 12:00:00 -2,8 -2,8 13 7 - - E
16.03.2019 11:00:00 -2,8 -2,8 11 6 - - E
16.03.2019 10:00:00 -2,9 -2,9 18 10 - - E
16.03.2019 09:00:00 -3,0 -3,0 18 10 - - E
16.03.2019 08:00:00 -2,5 -2,5 11 6 - - E
16.03.2019 07:00:00 -2,5 -2,5 4 2 - - SE
16.03.2019 06:00:00 -2,5 -2,5 9 5 - - SW

tt = Température de l'air
td = dewpoint
ff = Vitesse du vent
fx = gusts
dd = Direction du vent

stations d'obs. à proximité